sensor_id;sensor_type;location;lat;lon;timestamp;P1;durP1;ratioP1;P2;durP2;ratioP2
14961;SDS011;56489;53.166;10.864;2022-07-05T00:01:27;2.55;;;2.30;;
14961;SDS011;56489;53.166;10.864;2022-07-05T00:03:54;2.30;;;2.20;;
14961;SDS011;56489;53.166;10.864;2022-07-05T00:06:21;3.35;;;3.05;;
14961;SDS011;56489;53.166;10.864;2022-07-05T00:08:47;2.55;;;2.35;;
14961;SDS011;56489;53.166;10.864;2022-07-05T00:11:14;2.53;;;2.22;;
14961;SDS011;56489;53.166;10.864;2022-07-05T00:13:40;2.38;;;2.17;;
14961;SDS011;56489;53.166;10.864;2022-07-05T00:16:07;3.35;;;3.05;;
14961;SDS011;56489;53.166;10.864;2022-07-05T00:18:34;2.60;;;2.20;;
14961;SDS011;56489;53.166;10.864;2022-07-05T00:21:00;3.33;;;2.78;;
14961;SDS011;56489;53.166;10.864;2022-07-05T00:23:27;2.60;;;2.20;;
14961;SDS011;56489;53.166;10.864;2022-07-05T00:25:53;4.35;;;2.58;;
14961;SDS011;56489;53.166;10.864;2022-07-05T00:28:20;2.72;;;2.53;;
14961;SDS011;56489;53.166;10.864;2022-07-05T00:30:47;3.05;;;2.85;;
14961;SDS011;56489;53.166;10.864;2022-07-05T00:33:14;4.85;;;3.28;;
14961;SDS011;56489;53.166;10.864;2022-07-05T00:35:40;3.38;;;2.90;;
14961;SDS011;56489;53.166;10.864;2022-07-05T00:38:07;3.13;;;2.92;;
14961;SDS011;56489;53.166;10.864;2022-07-05T00:40:34;2.88;;;2.47;;
14961;SDS011;56489;53.166;10.864;2022-07-05T00:43:00;2.30;;;2.10;;
14961;SDS011;56489;53.166;10.864;2022-07-05T00:45:27;2.90;;;2.58;;
14961;SDS011;56489;53.166;10.864;2022-07-05T00:47:54;4.30;;;2.55;;
14961;SDS011;56489;53.166;10.864;2022-07-05T00:50:20;3.10;;;2.90;;
14961;SDS011;56489;53.166;10.864;2022-07-05T00:52:47;9.60;;;4.57;;
14961;SDS011;56489;53.166;10.864;2022-07-05T00:55:15;3.25;;;3.00;;
14961;SDS011;56489;53.166;10.864;2022-07-05T00:57:41;4.10;;;2.30;;
14961;SDS011;56489;53.166;10.864;2022-07-05T01:00:08;2.83;;;2.63;;
14961;SDS011;56489;53.166;10.864;2022-07-05T01:02:35;2.47;;;2.28;;
14961;SDS011;56489;53.166;10.864;2022-07-05T01:05:03;2.53;;;2.40;;
14961;SDS011;56489;53.166;10.864;2022-07-05T01:07:30;4.15;;;3.28;;
14961;SDS011;56489;53.166;10.864;2022-07-05T01:09:56;2.92;;;2.67;;
14961;SDS011;56489;53.166;10.864;2022-07-05T01:12:23;3.00;;;2.75;;
14961;SDS011;56489;53.166;10.864;2022-07-05T01:14:50;4.53;;;2.88;;
14961;SDS011;56489;53.166;10.864;2022-07-05T01:17:17;3.65;;;2.97;;
14961;SDS011;56489;53.166;10.864;2022-07-05T01:19:44;4.60;;;2.95;;
14961;SDS011;56489;53.166;10.864;2022-07-05T01:22:18;4.28;;;2.95;;
14961;SDS011;56489;53.166;10.864;2022-07-05T01:24:49;2.97;;;2.67;;
14961;SDS011;56489;53.166;10.864;2022-07-05T01:27:17;3.20;;;2.78;;
14961;SDS011;56489;53.166;10.864;2022-07-05T01:29:45;2.92;;;2.72;;
14961;SDS011;56489;53.166;10.864;2022-07-05T01:32:12;3.08;;;2.78;;
14961;SDS011;56489;53.166;10.864;2022-07-05T01:34:39;2.92;;;2.72;;
14961;SDS011;56489;53.166;10.864;2022-07-05T01:37:07;3.35;;;2.50;;
14961;SDS011;56489;53.166;10.864;2022-07-05T01:39:34;3.08;;;2.88;;
14961;SDS011;56489;53.166;10.864;2022-07-05T01:42:01;4.15;;;3.00;;
14961;SDS011;56489;53.166;10.864;2022-07-05T01:44:28;4.55;;;3.03;;
14961;SDS011;56489;53.166;10.864;2022-07-05T01:46:58;3.42;;;3.13;;
14961;SDS011;56489;53.166;10.864;2022-07-05T01:49:30;4.13;;;2.85;;
14961;SDS011;56489;53.166;10.864;2022-07-05T01:52:01;2.97;;;2.72;;
14961;SDS011;56489;53.166;10.864;2022-07-05T01:54:33;2.95;;;2.75;;
14961;SDS011;56489;53.166;10.864;2022-07-05T01:56:59;4.07;;;3.33;;
14961;SDS011;56489;53.166;10.864;2022-07-05T01:59:27;2.80;;;2.60;;
14961;SDS011;56489;53.166;10.864;2022-07-05T02:01:54;3.40;;;2.40;;
14961;SDS011;56489;53.166;10.864;2022-07-05T02:04:20;3.38;;;2.80;;
14961;SDS011;56489;53.166;10.864;2022-07-05T02:06:48;3.10;;;2.65;;
14961;SDS011;56489;53.166;10.864;2022-07-05T02:09:14;3.28;;;3.00;;
14961;SDS011;56489;53.166;10.864;2022-07-05T02:11:41;3.20;;;2.95;;
14961;SDS011;56489;53.166;10.864;2022-07-05T02:14:07;3.83;;;3.10;;
14961;SDS011;56489;53.166;10.864;2022-07-05T02:16:34;4.72;;;3.05;;
14961;SDS011;56489;53.166;10.864;2022-07-05T02:19:01;3.28;;;3.08;;
14961;SDS011;56489;53.166;10.864;2022-07-05T02:21:28;3.47;;;2.78;;
14961;SDS011;56489;53.166;10.864;2022-07-05T02:23:54;3.72;;;3.42;;
14961;SDS011;56489;53.166;10.864;2022-07-05T02:26:21;3.35;;;3.05;;
14961;SDS011;56489;53.166;10.864;2022-07-05T02:28:48;3.33;;;3.03;;
14961;SDS011;56489;53.166;10.864;2022-07-05T02:31:15;3.25;;;3.05;;
14961;SDS011;56489;53.166;10.864;2022-07-05T02:33:42;3.58;;;3.28;;
14961;SDS011;56489;53.166;10.864;2022-07-05T02:36:10;3.55;;;3.25;;
14961;SDS011;56489;53.166;10.864;2022-07-05T02:38:37;2.97;;;2.78;;
14961;SDS011;56489;53.166;10.864;2022-07-05T02:41:05;2.83;;;2.63;;
14961;SDS011;56489;53.166;10.864;2022-07-05T02:43:33;2.88;;;2.67;;
14961;SDS011;56489;53.166;10.864;2022-07-05T02:46:01;3.10;;;2.80;;
14961;SDS011;56489;53.166;10.864;2022-07-05T02:48:28;2.95;;;2.65;;
14961;SDS011;56489;53.166;10.864;2022-07-05T02:50:55;5.00;;;3.10;;
14961;SDS011;56489;53.166;10.864;2022-07-05T02:53:22;3.92;;;3.08;;
14961;SDS011;56489;53.166;10.864;2022-07-05T02:55:49;3.58;;;3.28;;
14961;SDS011;56489;53.166;10.864;2022-07-05T02:58:15;3.20;;;3.00;;
14961;SDS011;56489;53.166;10.864;2022-07-05T03:00:45;3.50;;;3.20;;
14961;SDS011;56489;53.166;10.864;2022-07-05T03:03:14;3.30;;;2.75;;
14961;SDS011;56489;53.166;10.864;2022-07-05T03:05:41;2.90;;;2.70;;
14961;SDS011;56489;53.166;10.864;2022-07-05T03:08:08;2.97;;;2.78;;
14961;SDS011;56489;53.166;10.864;2022-07-05T03:10:35;3.67;;;2.83;;
14961;SDS011;56489;53.166;10.864;2022-07-05T03:13:02;3.25;;;2.85;;
14961;SDS011;56489;53.166;10.864;2022-07-05T03:15:29;3.60;;;3.40;;
14961;SDS011;56489;53.166;10.864;2022-07-05T03:17:56;4.00;;;3.17;;
14961;SDS011;56489;53.166;10.864;2022-07-05T03:20:23;4.13;;;3.00;;
14961;SDS011;56489;53.166;10.864;2022-07-05T03:22:50;3.00;;;2.80;;
14961;SDS011;56489;53.166;10.864;2022-07-05T03:25:16;3.40;;;3.10;;
14961;SDS011;56489;53.166;10.864;2022-07-05T03:27:43;4.47;;;3.22;;
14961;SDS011;56489;53.166;10.864;2022-07-05T03:30:10;2.90;;;2.70;;
14961;SDS011;56489;53.166;10.864;2022-07-05T03:32:37;3.55;;;3.25;;
14961;SDS011;56489;53.166;10.864;2022-07-05T03:35:04;3.10;;;2.63;;
14961;SDS011;56489;53.166;10.864;2022-07-05T03:37:31;2.35;;;2.25;;
14961;SDS011;56489;53.166;10.864;2022-07-05T03:39:58;3.60;;;3.00;;
14961;SDS011;56489;53.166;10.864;2022-07-05T03:42:24;2.80;;;2.60;;
14961;SDS011;56489;53.166;10.864;2022-07-05T03:44:51;2.78;;;2.58;;
14961;SDS011;56489;53.166;10.864;2022-07-05T03:47:19;3.17;;;2.65;;
14961;SDS011;56489;53.166;10.864;2022-07-05T03:49:46;2.65;;;2.45;;
14961;SDS011;56489;53.166;10.864;2022-07-05T03:52:13;3.60;;;2.55;;
14961;SDS011;56489;53.166;10.864;2022-07-05T03:54:40;2.70;;;2.50;;
14961;SDS011;56489;53.166;10.864;2022-07-05T03:57:06;2.63;;;2.42;;
14961;SDS011;56489;53.166;10.864;2022-07-05T03:59:33;2.45;;;2.30;;
14961;SDS011;56489;53.166;10.864;2022-07-05T04:02:00;2.60;;;2.40;;
14961;SDS011;56489;53.166;10.864;2022-07-05T04:04:27;2.70;;;2.50;;
14961;SDS011;56489;53.166;10.864;2022-07-05T04:06:54;4.18;;;2.83;;
14961;SDS011;56489;53.166;10.864;2022-07-05T04:09:20;2.85;;;2.65;;
14961;SDS011;56489;53.166;10.864;2022-07-05T04:11:47;3.38;;;3.08;;
14961;SDS011;56489;53.166;10.864;2022-07-05T04:14:14;2.50;;;2.30;;
14961;SDS011;56489;53.166;10.864;2022-07-05T04:16:40;2.80;;;2.60;;
14961;SDS011;56489;53.166;10.864;2022-07-05T04:19:07;3.30;;;2.10;;
14961;SDS011;56489;53.166;10.864;2022-07-05T04:21:34;3.05;;;2.30;;
14961;SDS011;56489;53.166;10.864;2022-07-05T04:24:01;2.53;;;2.33;;
14961;SDS011;56489;53.166;10.864;2022-07-05T04:26:28;2.35;;;2.08;;
14961;SDS011;56489;53.166;10.864;2022-07-05T04:28:54;2.67;;;2.47;;
14961;SDS011;56489;53.166;10.864;2022-07-05T04:31:22;2.47;;;2.20;;
14961;SDS011;56489;53.166;10.864;2022-07-05T04:33:49;2.42;;;2.00;;
14961;SDS011;56489;53.166;10.864;2022-07-05T04:36:16;2.50;;;2.30;;
14961;SDS011;56489;53.166;10.864;2022-07-05T04:38:43;3.28;;;2.72;;
14961;SDS011;56489;53.166;10.864;2022-07-05T04:41:10;2.50;;;2.30;;
14961;SDS011;56489;53.166;10.864;2022-07-05T04:43:37;2.55;;;2.45;;
14961;SDS011;56489;53.166;10.864;2022-07-05T04:46:03;2.70;;;2.50;;
14961;SDS011;56489;53.166;10.864;2022-07-05T04:48:30;2.42;;;2.15;;
14961;SDS011;56489;53.166;10.864;2022-07-05T04:50:57;2.65;;;2.42;;
14961;SDS011;56489;53.166;10.864;2022-07-05T04:53:24;2.20;;;2.00;;
14961;SDS011;56489;53.166;10.864;2022-07-05T04:55:50;1.90;;;1.80;;
14961;SDS011;56489;53.166;10.864;2022-07-05T04:58:17;2.13;;;1.90;;
14961;SDS011;56489;53.166;10.864;2022-07-05T05:00:44;2.33;;;2.13;;
14961;SDS011;56489;53.166;10.864;2022-07-05T05:03:11;3.20;;;2.20;;
14961;SDS011;56489;53.166;10.864;2022-07-05T05:05:37;1.65;;;1.55;;
14961;SDS011;56489;53.166;10.864;2022-07-05T05:08:04;2.47;;;1.98;;
14961;SDS011;56489;53.166;10.864;2022-07-05T05:10:31;1.77;;;1.67;;
14961;SDS011;56489;53.166;10.864;2022-07-05T05:12:57;1.83;;;1.73;;
14961;SDS011;56489;53.166;10.864;2022-07-05T05:15:24;2.13;;;1.92;;
14961;SDS011;56489;53.166;10.864;2022-07-05T05:17:50;1.90;;;1.80;;
14961;SDS011;56489;53.166;10.864;2022-07-05T05:20:17;1.88;;;1.77;;
14961;SDS011;56489;53.166;10.864;2022-07-05T05:22:45;3.20;;;1.73;;
14961;SDS011;56489;53.166;10.864;2022-07-05T05:25:12;3.67;;;1.90;;
14961;SDS011;56489;53.166;10.864;2022-07-05T05:27:40;1.70;;;1.60;;
14961;SDS011;56489;53.166;10.864;2022-07-05T05:30:13;2.22;;;2.03;;
14961;SDS011;56489;53.166;10.864;2022-07-05T05:32:41;1.83;;;1.73;;
14961;SDS011;56489;53.166;10.864;2022-07-05T05:35:08;4.30;;;2.00;;
14961;SDS011;56489;53.166;10.864;2022-07-05T05:37:51;2.53;;;1.60;;
14961;SDS011;56489;53.166;10.864;2022-07-05T05:40:19;1.90;;;1.42;;
14961;SDS011;56489;53.166;10.864;2022-07-05T05:42:47;1.90;;;1.70;;
14961;SDS011;56489;53.166;10.864;2022-07-05T05:45:14;3.05;;;1.67;;
14961;SDS011;56489;53.166;10.864;2022-07-05T05:47:51;2.83;;;2.03;;
14961;SDS011;56489;53.166;10.864;2022-07-05T05:50:20;1.73;;;1.60;;
14961;SDS011;56489;53.166;10.864;2022-07-05T05:52:50;1.83;;;1.73;;
14961;SDS011;56489;53.166;10.864;2022-07-05T05:55:17;2.22;;;1.40;;
14961;SDS011;56489;53.166;10.864;2022-07-05T05:57:44;2.10;;;1.50;;
14961;SDS011;56489;53.166;10.864;2022-07-05T06:00:11;1.58;;;1.45;;
14961;SDS011;56489;53.166;10.864;2022-07-05T06:02:39;1.90;;;1.30;;
14961;SDS011;56489;53.166;10.864;2022-07-05T06:05:06;1.50;;;1.40;;
14961;SDS011;56489;53.166;10.864;2022-07-05T06:07:43;1.50;;;1.40;;
14961;SDS011;56489;53.166;10.864;2022-07-05T06:10:14;1.30;;;1.20;;
14961;SDS011;56489;53.166;10.864;2022-07-05T06:12:41;1.23;;;1.13;;
14961;SDS011;56489;53.166;10.864;2022-07-05T06:15:08;1.90;;;1.30;;
14961;SDS011;56489;53.166;10.864;2022-07-05T06:17:36;1.30;;;1.13;;
14961;SDS011;56489;53.166;10.864;2022-07-05T06:20:07;3.08;;;1.60;;
14961;SDS011;56489;53.166;10.864;2022-07-05T06:22:35;1.02;;;0.80;;
14961;SDS011;56489;53.166;10.864;2022-07-05T06:25:02;1.67;;;0.90;;
14961;SDS011;56489;53.166;10.864;2022-07-05T06:27:50;1.00;;;0.90;;
14961;SDS011;56489;53.166;10.864;2022-07-05T06:30:19;0.80;;;0.80;;
14961;SDS011;56489;53.166;10.864;2022-07-05T06:32:48;1.33;;;0.80;;
14961;SDS011;56489;53.166;10.864;2022-07-05T06:35:16;1.38;;;0.85;;
14961;SDS011;56489;53.166;10.864;2022-07-05T06:37:44;1.40;;;0.95;;
14961;SDS011;56489;53.166;10.864;2022-07-05T06:40:21;1.42;;;0.60;;
14961;SDS011;56489;53.166;10.864;2022-07-05T06:42:49;1.92;;;0.68;;
14961;SDS011;56489;53.166;10.864;2022-07-05T06:45:17;2.45;;;0.68;;
14961;SDS011;56489;53.166;10.864;2022-07-05T06:47:43;1.58;;;0.80;;
14961;SDS011;56489;53.166;10.864;2022-07-05T06:50:10;1.17;;;0.88;;
14961;SDS011;56489;53.166;10.864;2022-07-05T06:52:37;0.77;;;0.55;;
14961;SDS011;56489;53.166;10.864;2022-07-05T06:55:05;0.70;;;0.50;;
14961;SDS011;56489;53.166;10.864;2022-07-05T06:57:32;1.52;;;0.88;;
14961;SDS011;56489;53.166;10.864;2022-07-05T06:59:59;1.08;;;0.70;;
14961;SDS011;56489;53.166;10.864;2022-07-05T07:02:27;1.70;;;0.70;;
14961;SDS011;56489;53.166;10.864;2022-07-05T07:04:54;0.80;;;0.60;;
14961;SDS011;56489;53.166;10.864;2022-07-05T07:07:39;1.38;;;0.75;;
14961;SDS011;56489;53.166;10.864;2022-07-05T07:10:24;1.67;;;0.90;;
14961;SDS011;56489;53.166;10.864;2022-07-05T07:12:55;2.80;;;0.85;;
14961;SDS011;56489;53.166;10.864;2022-07-05T07:15:25;1.25;;;0.68;;
14961;SDS011;56489;53.166;10.864;2022-07-05T07:17:52;1.30;;;0.73;;
14961;SDS011;56489;53.166;10.864;2022-07-05T07:20:19;0.60;;;0.57;;
14961;SDS011;56489;53.166;10.864;2022-07-05T07:22:45;1.25;;;0.73;;
14961;SDS011;56489;53.166;10.864;2022-07-05T07:25:12;1.13;;;0.82;;
14961;SDS011;56489;53.166;10.864;2022-07-05T07:27:50;1.83;;;0.90;;
14961;SDS011;56489;53.166;10.864;2022-07-05T07:30:19;0.85;;;0.85;;
14961;SDS011;56489;53.166;10.864;2022-07-05T07:32:48;1.35;;;0.40;;
14961;SDS011;56489;53.166;10.864;2022-07-05T07:35:14;2.25;;;0.60;;
14961;SDS011;56489;53.166;10.864;2022-07-05T07:37:41;0.93;;;0.57;;
14961;SDS011;56489;53.166;10.864;2022-07-05T07:40:08;2.72;;;0.90;;
14961;SDS011;56489;53.166;10.864;2022-07-05T07:42:35;0.95;;;0.63;;
14961;SDS011;56489;53.166;10.864;2022-07-05T07:45:02;0.57;;;0.57;;
14961;SDS011;56489;53.166;10.864;2022-07-05T07:47:30;2.33;;;0.68;;
14961;SDS011;56489;53.166;10.864;2022-07-05T07:49:57;1.52;;;0.80;;
14961;SDS011;56489;53.166;10.864;2022-07-05T07:52:24;1.83;;;0.52;;
14961;SDS011;56489;53.166;10.864;2022-07-05T07:54:51;1.15;;;0.70;;
14961;SDS011;56489;53.166;10.864;2022-07-05T07:57:18;0.95;;;0.75;;
14961;SDS011;56489;53.166;10.864;2022-07-05T07:59:45;1.33;;;0.55;;
14961;SDS011;56489;53.166;10.864;2022-07-05T08:02:11;1.25;;;0.70;;
14961;SDS011;56489;53.166;10.864;2022-07-05T08:04:38;1.42;;;0.90;;
14961;SDS011;56489;53.166;10.864;2022-07-05T08:07:05;1.15;;;0.60;;
14961;SDS011;56489;53.166;10.864;2022-07-05T08:09:31;0.60;;;0.60;;
14961;SDS011;56489;53.166;10.864;2022-07-05T08:11:58;1.98;;;0.60;;
14961;SDS011;56489;53.166;10.864;2022-07-05T08:14:24;2.05;;;0.80;;
14961;SDS011;56489;53.166;10.864;2022-07-05T08:16:50;1.60;;;0.60;;
14961;SDS011;56489;53.166;10.864;2022-07-05T08:19:18;0.98;;;0.50;;
14961;SDS011;56489;53.166;10.864;2022-07-05T08:22:04;0.73;;;0.73;;
14961;SDS011;56489;53.166;10.864;2022-07-05T08:24:34;1.45;;;0.70;;
14961;SDS011;56489;53.166;10.864;2022-07-05T08:27:01;0.82;;;0.73;;
14961;SDS011;56489;53.166;10.864;2022-07-05T08:29:28;0.75;;;0.75;;
14961;SDS011;56489;53.166;10.864;2022-07-05T08:31:55;1.10;;;0.60;;
14961;SDS011;56489;53.166;10.864;2022-07-05T08:34:22;1.88;;;0.80;;
14961;SDS011;56489;53.166;10.864;2022-07-05T08:36:48;1.02;;;0.70;;
14961;SDS011;56489;53.166;10.864;2022-07-05T08:39:15;1.77;;;0.77;;
14961;SDS011;56489;53.166;10.864;2022-07-05T08:41:43;0.98;;;0.65;;
14961;SDS011;56489;53.166;10.864;2022-07-05T08:44:16;1.02;;;0.80;;
14961;SDS011;56489;53.166;10.864;2022-07-05T08:46:45;1.00;;;0.88;;
14961;SDS011;56489;53.166;10.864;2022-07-05T08:49:13;1.65;;;1.08;;
14961;SDS011;56489;53.166;10.864;2022-07-05T08:51:41;1.90;;;0.70;;
14961;SDS011;56489;53.166;10.864;2022-07-05T08:54:09;1.35;;;0.80;;
14961;SDS011;56489;53.166;10.864;2022-07-05T08:56:38;2.92;;;0.82;;
14961;SDS011;56489;53.166;10.864;2022-07-05T08:59:27;2.25;;;0.60;;
14961;SDS011;56489;53.166;10.864;2022-07-05T09:01:53;0.60;;;0.60;;
14961;SDS011;56489;53.166;10.864;2022-07-05T09:04:23;1.50;;;0.70;;
14961;SDS011;56489;53.166;10.864;2022-07-05T09:06:52;0.82;;;0.70;;
14961;SDS011;56489;53.166;10.864;2022-07-05T09:09:22;0.68;;;0.60;;
14961;SDS011;56489;53.166;10.864;2022-07-05T09:11:51;1.52;;;0.90;;
14961;SDS011;56489;53.166;10.864;2022-07-05T09:14:38;2.28;;;0.70;;
14961;SDS011;56489;53.166;10.864;2022-07-05T09:17:04;1.23;;;0.70;;
14961;SDS011;56489;53.166;10.864;2022-07-05T09:19:31;1.95;;;0.73;;
14961;SDS011;56489;53.166;10.864;2022-07-05T09:22:04;1.92;;;0.70;;
14961;SDS011;56489;53.166;10.864;2022-07-05T09:24:32;0.52;;;0.50;;
14961;SDS011;56489;53.166;10.864;2022-07-05T09:27:12;0.65;;;0.65;;
14961;SDS011;56489;53.166;10.864;2022-07-05T09:29:40;1.65;;;0.68;;
14961;SDS011;56489;53.166;10.864;2022-07-05T09:32:28;0.50;;;0.50;;
14961;SDS011;56489;53.166;10.864;2022-07-05T09:34:58;0.95;;;0.70;;
14961;SDS011;56489;53.166;10.864;2022-07-05T09:37:45;1.13;;;0.73;;
14961;SDS011;56489;53.166;10.864;2022-07-05T09:40:11;1.00;;;0.70;;
14961;SDS011;56489;53.166;10.864;2022-07-05T09:42:46;1.40;;;0.65;;
14961;SDS011;56489;53.166;10.864;2022-07-05T09:45:23;1.45;;;0.60;;
14961;SDS011;56489;53.166;10.864;2022-07-05T09:47:53;1.38;;;0.77;;
14961;SDS011;56489;53.166;10.864;2022-07-05T09:50:40;1.55;;;0.80;;
14961;SDS011;56489;53.166;10.864;2022-07-05T09:53:27;0.50;;;0.50;;
14961;SDS011;56489;53.166;10.864;2022-07-05T09:56:10;2.60;;;0.60;;
14961;SDS011;56489;53.166;10.864;2022-07-05T09:58:37;0.80;;;0.70;;
14961;SDS011;56489;53.166;10.864;2022-07-05T10:04:09;0.90;;;0.63;;
14961;SDS011;56489;53.166;10.864;2022-07-05T10:06:36;1.63;;;0.55;;
14961;SDS011;56489;53.166;10.864;2022-07-05T10:09:03;1.17;;;0.80;;
14961;SDS011;56489;53.166;10.864;2022-07-05T10:11:30;1.17;;;0.60;;
14961;SDS011;56489;53.166;10.864;2022-07-05T10:13:58;1.50;;;0.70;;
14961;SDS011;56489;53.166;10.864;2022-07-05T10:16:26;1.15;;;0.60;;
14961;SDS011;56489;53.166;10.864;2022-07-05T10:18:55;0.60;;;0.60;;
14961;SDS011;56489;53.166;10.864;2022-07-05T10:21:23;1.20;;;0.50;;
14961;SDS011;56489;53.166;10.864;2022-07-05T10:23:51;0.70;;;0.50;;
14961;SDS011;56489;53.166;10.864;2022-07-05T10:26:22;0.80;;;0.70;;
14961;SDS011;56489;53.166;10.864;2022-07-05T10:28:50;0.82;;;0.68;;
14961;SDS011;56489;53.166;10.864;2022-07-05T10:31:26;1.38;;;0.65;;
14961;SDS011;56489;53.166;10.864;2022-07-05T10:33:55;0.68;;;0.68;;
14961;SDS011;56489;53.166;10.864;2022-07-05T10:36:23;0.45;;;0.45;;
14961;SDS011;56489;53.166;10.864;2022-07-05T10:38:50;0.65;;;0.60;;
14961;SDS011;56489;53.166;10.864;2022-07-05T10:41:18;1.65;;;0.60;;
14961;SDS011;56489;53.166;10.864;2022-07-05T10:43:53;1.55;;;0.57;;
14961;SDS011;56489;53.166;10.864;2022-07-05T10:46:34;0.60;;;0.50;;
14961;SDS011;56489;53.166;10.864;2022-07-05T10:49:11;0.70;;;0.70;;
14961;SDS011;56489;53.166;10.864;2022-07-05T10:51:43;0.70;;;0.50;;
14961;SDS011;56489;53.166;10.864;2022-07-05T10:54:18;1.15;;;0.43;;
14961;SDS011;56489;53.166;10.864;2022-07-05T10:57:19;0.65;;;0.50;;
14961;SDS011;56489;53.166;10.864;2022-07-05T11:00:04;0.52;;;0.52;;
14961;SDS011;56489;53.166;10.864;2022-07-05T11:02:32;0.82;;;0.50;;
14961;SDS011;56489;53.166;10.864;2022-07-05T11:04:59;0.50;;;0.50;;
14961;SDS011;56489;53.166;10.864;2022-07-05T11:07:56;0.57;;;0.57;;
14961;SDS011;56489;53.166;10.864;2022-07-05T11:10:26;0.80;;;0.52;;
14961;SDS011;56489;53.166;10.864;2022-07-05T11:12:52;1.17;;;0.50;;
14961;SDS011;56489;53.166;10.864;2022-07-05T11:15:19;0.70;;;0.50;;
14961;SDS011;56489;53.166;10.864;2022-07-05T11:17:45;3.47;;;1.23;;
14961;SDS011;56489;53.166;10.864;2022-07-05T11:20:30;1.95;;;0.60;;
14961;SDS011;56489;53.166;10.864;2022-07-05T11:23:08;0.68;;;0.60;;
14961;SDS011;56489;53.166;10.864;2022-07-05T11:25:37;1.13;;;0.60;;
14961;SDS011;56489;53.166;10.864;2022-07-05T11:28:16;0.77;;;0.70;;
14961;SDS011;56489;53.166;10.864;2022-07-05T11:30:48;0.95;;;0.60;;
14961;SDS011;56489;53.166;10.864;2022-07-05T11:33:31;0.80;;;0.70;;
14961;SDS011;56489;53.166;10.864;2022-07-05T11:35:59;0.57;;;0.40;;
14961;SDS011;56489;53.166;10.864;2022-07-05T11:38:26;0.98;;;0.70;;
14961;SDS011;56489;53.166;10.864;2022-07-05T11:41:13;1.58;;;0.70;;
14961;SDS011;56489;53.166;10.864;2022-07-05T11:43:41;0.95;;;0.60;;
14961;SDS011;56489;53.166;10.864;2022-07-05T11:46:08;0.60;;;0.50;;
14961;SDS011;56489;53.166;10.864;2022-07-05T11:48:55;1.55;;;0.70;;
14961;SDS011;56489;53.166;10.864;2022-07-05T11:51:22;1.27;;;0.70;;
14961;SDS011;56489;53.166;10.864;2022-07-05T11:53:49;0.80;;;0.60;;
14961;SDS011;56489;53.166;10.864;2022-07-05T11:56:36;0.50;;;0.50;;
14961;SDS011;56489;53.166;10.864;2022-07-05T11:59:16;1.20;;;0.77;;
14961;SDS011;56489;53.166;10.864;2022-07-05T12:01:44;2.00;;;0.50;;
14961;SDS011;56489;53.166;10.864;2022-07-05T12:04:11;2.47;;;0.63;;
14961;SDS011;56489;53.166;10.864;2022-07-05T12:06:41;1.02;;;0.77;;
14961;SDS011;56489;53.166;10.864;2022-07-05T12:09:08;1.33;;;0.43;;
14961;SDS011;56489;53.166;10.864;2022-07-05T12:11:35;0.93;;;0.70;;
14961;SDS011;56489;53.166;10.864;2022-07-05T12:14:20;2.35;;;0.70;;
14961;SDS011;56489;53.166;10.864;2022-07-05T12:16:48;1.08;;;0.60;;
14961;SDS011;56489;53.166;10.864;2022-07-05T12:19:35;0.60;;;0.50;;
14961;SDS011;56489;53.166;10.864;2022-07-05T12:22:01;1.55;;;0.50;;
14961;SDS011;56489;53.166;10.864;2022-07-05T12:24:28;0.55;;;0.50;;
14961;SDS011;56489;53.166;10.864;2022-07-05T12:26:55;0.80;;;0.60;;
14961;SDS011;56489;53.166;10.864;2022-07-05T12:29:22;0.70;;;0.50;;
14961;SDS011;56489;53.166;10.864;2022-07-05T12:31:59;0.85;;;0.55;;
14961;SDS011;56489;53.166;10.864;2022-07-05T12:34:27;2.13;;;0.70;;
14961;SDS011;56489;53.166;10.864;2022-07-05T12:36:53;1.60;;;0.55;;
14961;SDS011;56489;53.166;10.864;2022-07-05T12:39:21;1.20;;;1.10;;
14961;SDS011;56489;53.166;10.864;2022-07-05T12:41:47;0.38;;;0.38;;
14961;SDS011;56489;53.166;10.864;2022-07-05T12:44:17;1.23;;;0.50;;
14961;SDS011;56489;53.166;10.864;2022-07-05T12:46:46;0.77;;;0.50;;
14961;SDS011;56489;53.166;10.864;2022-07-05T12:49:15;0.68;;;0.47;;
14961;SDS011;56489;53.166;10.864;2022-07-05T12:51:43;1.83;;;0.77;;
14961;SDS011;56489;53.166;10.864;2022-07-05T12:54:20;0.60;;;0.43;;
14961;SDS011;56489;53.166;10.864;2022-07-05T12:57:07;1.85;;;0.70;;
14961;SDS011;56489;53.166;10.864;2022-07-05T12:59:57;1.80;;;0.50;;
14961;SDS011;56489;53.166;10.864;2022-07-05T13:02:33;1.38;;;0.70;;
14961;SDS011;56489;53.166;10.864;2022-07-05T13:05:00;0.50;;;0.50;;
14961;SDS011;56489;53.166;10.864;2022-07-05T13:07:27;0.80;;;0.60;;
14961;SDS011;56489;53.166;10.864;2022-07-05T13:10:20;1.00;;;1.00;;
14961;SDS011;56489;53.166;10.864;2022-07-05T13:12:48;1.40;;;0.80;;
14961;SDS011;56489;53.166;10.864;2022-07-05T13:15:16;0.57;;;0.50;;
14961;SDS011;56489;53.166;10.864;2022-07-05T13:17:43;0.95;;;0.75;;
14961;SDS011;56489;53.166;10.864;2022-07-05T13:20:12;1.52;;;0.60;;
14961;SDS011;56489;53.166;10.864;2022-07-05T13:22:41;0.95;;;0.60;;
14961;SDS011;56489;53.166;10.864;2022-07-05T13:25:07;1.48;;;0.50;;
14961;SDS011;56489;53.166;10.864;2022-07-05T13:27:34;0.45;;;0.45;;
14961;SDS011;56489;53.166;10.864;2022-07-05T13:30:02;0.85;;;0.70;;
14961;SDS011;56489;53.166;10.864;2022-07-05T13:32:29;0.60;;;0.50;;
14961;SDS011;56489;53.166;10.864;2022-07-05T13:34:56;0.68;;;0.68;;
14961;SDS011;56489;53.166;10.864;2022-07-05T13:37:23;0.98;;;0.50;;
14961;SDS011;56489;53.166;10.864;2022-07-05T13:39:50;1.83;;;0.80;;
14961;SDS011;56489;53.166;10.864;2022-07-05T13:42:16;0.70;;;0.50;;
14961;SDS011;56489;53.166;10.864;2022-07-05T13:44:43;0.75;;;0.75;;
14961;SDS011;56489;53.166;10.864;2022-07-05T13:47:09;1.30;;;0.80;;
14961;SDS011;56489;53.166;10.864;2022-07-05T13:49:37;0.80;;;0.60;;
14961;SDS011;56489;53.166;10.864;2022-07-05T13:52:06;2.30;;;1.05;;
14961;SDS011;56489;53.166;10.864;2022-07-05T13:54:32;0.85;;;0.60;;
14961;SDS011;56489;53.166;10.864;2022-07-05T13:57:00;1.17;;;0.60;;
14961;SDS011;56489;53.166;10.864;2022-07-05T13:59:26;0.95;;;0.57;;
14961;SDS011;56489;53.166;10.864;2022-07-05T14:01:53;1.30;;;0.70;;
14961;SDS011;56489;53.166;10.864;2022-07-05T14:04:20;0.57;;;0.57;;
14961;SDS011;56489;53.166;10.864;2022-07-05T14:06:47;0.75;;;0.60;;
14961;SDS011;56489;53.166;10.864;2022-07-05T14:09:16;0.60;;;0.60;;
14961;SDS011;56489;53.166;10.864;2022-07-05T14:11:42;1.58;;;0.50;;
14961;SDS011;56489;53.166;10.864;2022-07-05T14:14:09;1.20;;;0.52;;
14961;SDS011;56489;53.166;10.864;2022-07-05T14:19:05;1.30;;;0.60;;
14961;SDS011;56489;53.166;10.864;2022-07-05T14:21:32;1.58;;;0.60;;
14961;SDS011;56489;53.166;10.864;2022-07-05T14:24:04;2.17;;;0.65;;
14961;SDS011;56489;53.166;10.864;2022-07-05T14:26:31;0.85;;;0.60;;
14961;SDS011;56489;53.166;10.864;2022-07-05T14:28:59;0.98;;;0.60;;
14961;SDS011;56489;53.166;10.864;2022-07-05T14:31:27;1.40;;;0.60;;
14961;SDS011;56489;53.166;10.864;2022-07-05T14:33:57;0.82;;;0.52;;
14961;SDS011;56489;53.166;10.864;2022-07-05T14:36:24;1.05;;;0.65;;
14961;SDS011;56489;53.166;10.864;2022-07-05T14:38:50;0.57;;;0.57;;
14961;SDS011;56489;53.166;10.864;2022-07-05T14:41:17;2.22;;;0.60;;
14961;SDS011;56489;53.166;10.864;2022-07-05T14:43:43;1.67;;;0.70;;
14961;SDS011;56489;53.166;10.864;2022-07-05T14:46:10;1.85;;;0.60;;
14961;SDS011;56489;53.166;10.864;2022-07-05T14:48:44;0.60;;;0.60;;
14961;SDS011;56489;53.166;10.864;2022-07-05T14:51:11;1.67;;;0.93;;